createdAt,value
2022-11-03T00:00:57.311Z,50.902367
2022-11-03T00:01:57.369Z,50.902378
2022-11-03T00:02:57.331Z,50.902393
2022-11-03T00:03:57.271Z,50.902390
2022-11-03T00:04:57.247Z,50.902367
2022-11-03T00:05:57.270Z,50.902351
2022-11-03T00:06:57.233Z,50.902374
2022-11-03T00:07:57.222Z,50.902367
2022-11-03T00:08:57.219Z,50.902374
2022-11-03T00:09:57.213Z,50.902359
2022-11-03T00:10:57.197Z,50.902378
2022-11-03T00:11:57.218Z,50.902351
2022-11-03T00:12:57.182Z,50.902370
2022-11-03T00:13:57.227Z,50.902378
2022-11-03T00:14:57.166Z,50.902397
2022-11-03T00:15:57.198Z,50.902378
2022-11-03T00:16:57.167Z,50.902374
2022-11-03T00:17:57.156Z,50.902367
2022-11-03T00:18:57.144Z,50.902374
2022-11-03T00:19:57.140Z,50.902367
2022-11-03T00:20:57.159Z,50.902367
2022-11-03T00:21:57.111Z,50.902367
2022-11-03T00:22:57.106Z,50.902378
2022-11-03T00:23:57.101Z,50.902374
2022-11-03T00:24:57.090Z,50.902390
2022-11-03T00:25:57.088Z,50.902382
2022-11-03T00:26:57.109Z,50.902374
2022-11-03T00:27:57.118Z,50.902363
2022-11-03T00:28:57.064Z,50.902390
2022-11-03T00:29:57.055Z,50.902393
2022-11-03T00:30:57.051Z,50.902401
2022-11-03T00:31:57.060Z,50.902382
2022-11-03T00:32:57.031Z,50.902393
2022-11-03T00:33:57.026Z,50.902386
2022-11-03T00:34:57.017Z,50.902390
2022-11-03T00:35:57.008Z,50.902367
2022-11-03T00:36:57.059Z,50.902351
2022-11-03T00:37:56.989Z,50.902390
2022-11-03T00:38:56.991Z,50.902393
2022-11-03T00:39:56.982Z,50.902397
2022-11-03T00:40:56.972Z,50.902405
2022-11-03T00:41:56.991Z,50.902390
2022-11-03T00:42:56.951Z,50.902367
2022-11-03T00:43:56.942Z,50.902397
2022-11-03T00:44:56.932Z,50.902401
2022-11-03T00:45:56.939Z,50.902412
2022-11-03T00:46:56.952Z,50.902397
2022-11-03T00:47:56.943Z,50.902393
2022-11-03T00:48:56.905Z,50.902390
2022-11-03T00:49:56.897Z,50.902409
2022-11-03T00:50:56.894Z,50.902409
2022-11-03T00:51:56.911Z,50.902401
2022-11-03T00:52:56.887Z,50.902393
2022-11-03T00:53:56.873Z,50.902393
2022-11-03T00:54:56.862Z,50.902348
2022-11-03T00:55:56.855Z,50.902397
2022-11-03T00:56:56.889Z,50.902390
2022-11-03T00:57:56.839Z,50.902390
2022-11-03T00:58:56.832Z,50.902386
2022-11-03T00:59:56.830Z,50.902378
2022-11-03T01:00:56.892Z,50.902378
2022-11-03T01:01:56.929Z,50.902382
2022-11-03T01:02:56.800Z,50.902382
2022-11-03T01:03:56.808Z,50.902420
2022-11-03T01:04:56.793Z,50.902393
2022-11-03T01:05:56.824Z,50.902401
2022-11-03T01:06:56.805Z,50.902393
2022-11-03T01:07:56.799Z,50.902382
2022-11-03T01:08:56.759Z,50.902401
2022-11-03T01:09:56.763Z,50.902386
2022-11-03T01:10:56.751Z,50.902378
2022-11-03T01:11:56.771Z,50.902435
2022-11-03T01:12:56.734Z,50.902431
2022-11-03T01:13:56.728Z,50.902370
2022-11-03T01:14:56.719Z,50.902378
2022-11-03T01:15:56.787Z,50.902370
2022-11-03T01:16:56.733Z,50.902393
2022-11-03T01:17:56.722Z,50.902382
2022-11-03T01:18:56.688Z,50.902401
2022-11-03T01:19:56.674Z,50.902405
2022-11-03T01:20:56.660Z,50.902416
2022-11-03T01:21:57.694Z,50.902420
2022-11-03T01:22:56.650Z,50.902428
2022-11-03T01:23:56.644Z,50.902374
2022-11-03T01:24:56.649Z,50.902378
2022-11-03T01:25:56.628Z,50.902412
2022-11-03T01:26:56.648Z,50.902393
2022-11-03T01:27:56.666Z,50.902431
2022-11-03T01:28:56.611Z,50.902451
2022-11-03T01:29:56.596Z,50.902424
2022-11-03T01:30:56.595Z,50.902409
2022-11-03T01:31:56.617Z,50.902443
2022-11-03T01:32:56.577Z,50.902435
2022-11-03T01:33:56.571Z,50.902412
2022-11-03T01:34:56.561Z,50.902420
2022-11-03T01:35:56.561Z,50.902439
2022-11-03T01:36:56.575Z,50.902428
2022-11-03T01:37:56.555Z,50.902447
2022-11-03T01:38:56.540Z,50.902447
2022-11-03T01:39:56.529Z,50.902458
2022-11-03T01:40:56.523Z,50.902424
2022-11-03T01:41:56.605Z,50.902439
2022-11-03T01:42:56.515Z,50.902416
2022-11-03T01:43:56.510Z,50.902447
2022-11-03T01:44:56.492Z,50.902420
2022-11-03T01:45:56.489Z,50.902420
2022-11-03T01:46:56.507Z,50.902416
2022-11-03T01:47:56.465Z,50.902412
2022-11-03T01:48:56.463Z,50.902397
2022-11-03T01:49:56.453Z,50.902443
2022-11-03T01:50:56.448Z,50.902443
2022-11-03T01:51:56.476Z,50.902443
2022-11-03T01:52:56.435Z,50.902435
2022-11-03T01:53:56.491Z,50.902443
2022-11-03T01:54:56.426Z,50.902420
2022-11-03T01:55:56.415Z,50.902420
2022-11-03T01:56:56.409Z,50.902435
2022-11-03T01:57:56.417Z,50.902420
2022-11-03T01:58:56.389Z,50.902416
2022-11-03T01:59:56.385Z,50.902428
2022-11-03T02:00:56.396Z,50.902439
2022-11-03T02:01:56.515Z,50.902443
2022-11-03T02:02:56.368Z,50.902451
2022-11-03T02:03:56.354Z,50.902500
2022-11-03T02:04:56.352Z,50.902447
2022-11-03T02:05:56.325Z,50.902439
2022-11-03T02:06:57.375Z,50.902412
2022-11-03T02:07:56.411Z,50.902420
2022-11-03T02:08:56.321Z,50.902489
2022-11-03T02:09:56.316Z,50.902435
2022-11-03T02:10:56.302Z,50.902493
2022-11-03T02:11:56.317Z,50.902496
2022-11-03T02:12:56.289Z,50.902443
2022-11-03T02:13:56.283Z,50.902454
2022-11-03T02:14:56.269Z,50.902451
2022-11-03T02:15:56.263Z,50.902470
2022-11-03T02:16:56.283Z,50.902470
2022-11-03T02:17:56.246Z,50.902458
2022-11-03T02:18:56.310Z,50.902416
2022-11-03T02:19:56.236Z,50.902447
2022-11-03T02:20:56.223Z,50.902443
2022-11-03T02:21:56.243Z,50.902500
2022-11-03T02:22:56.208Z,50.902458
2022-11-03T02:23:56.209Z,50.902443
2022-11-03T02:24:56.191Z,50.902504
2022-11-03T02:25:56.206Z,50.902489
2022-11-03T02:26:56.200Z,50.902485
2022-11-03T02:27:56.168Z,50.902454
2022-11-03T02:28:56.172Z,50.902466
2022-11-03T02:29:56.160Z,50.902481
2022-11-03T02:30:56.153Z,50.902458
2022-11-03T02:31:56.173Z,50.902447
2022-11-03T02:32:56.140Z,50.902439
2022-11-03T02:33:56.148Z,50.902428
2022-11-03T02:34:56.122Z,50.902454
2022-11-03T02:35:56.116Z,50.902454
2022-11-03T02:36:56.107Z,50.902443
2022-11-03T02:37:56.132Z,50.902485
2022-11-03T02:38:56.091Z,50.902477
2022-11-03T02:39:56.089Z,50.902466
2022-11-03T02:40:56.074Z,50.902435
2022-11-03T02:41:56.079Z,50.902451
2022-11-03T02:42:56.085Z,50.902435
2022-11-03T02:43:56.048Z,50.902451
2022-11-03T02:44:56.055Z,50.902431
2022-11-03T02:45:56.050Z,50.902443
2022-11-03T02:46:56.058Z,50.902443
2022-11-03T02:47:56.017Z,50.902454
2022-11-03T02:48:56.014Z,50.902473
2022-11-03T02:50:57.002Z,50.902462
2022-11-03T02:51:56.029Z,50.902470
2022-11-03T02:52:55.984Z,50.902485
2022-11-03T02:53:55.976Z,50.902485
2022-11-03T02:54:55.969Z,50.902489
2022-11-03T02:55:55.962Z,50.902477
2022-11-03T02:56:55.980Z,50.902473
2022-11-03T02:57:55.947Z,50.902470
2022-11-03T02:58:55.932Z,50.902477
2022-11-03T02:59:55.936Z,50.902489
2022-11-03T03:00:55.964Z,50.902481
2022-11-03T03:01:56.036Z,50.902481
2022-11-03T03:02:55.906Z,50.902473
2022-11-03T03:03:55.901Z,50.902473
2022-11-03T03:04:55.881Z,50.902477
2022-11-03T03:05:55.880Z,50.902489
2022-11-03T03:06:55.899Z,50.902473
2022-11-03T03:07:55.872Z,50.902496
2022-11-03T03:08:55.857Z,50.902470
2022-11-03T03:09:55.854Z,50.902496
2022-11-03T03:10:55.850Z,50.902443
2022-11-03T03:11:55.860Z,50.902443
2022-11-03T03:12:55.827Z,50.902443
2022-11-03T03:13:55.820Z,50.902454
2022-11-03T03:14:55.829Z,50.902454
2022-11-03T03:15:55.804Z,50.902439
2022-11-03T03:16:55.817Z,50.902431
2022-11-03T03:17:55.794Z,50.902454
2022-11-03T03:18:55.777Z,50.902462
2022-11-03T03:19:55.789Z,50.902454
2022-11-03T03:20:55.772Z,50.902447
2022-11-03T03:21:55.782Z,50.902447
2022-11-03T03:22:55.753Z,50.902477
2022-11-03T03:23:55.748Z,50.902466
2022-11-03T03:24:55.742Z,50.902447
2022-11-03T03:25:55.718Z,50.902435
2022-11-03T03:26:56.766Z,50.902443
2022-11-03T03:27:55.722Z,50.902431
2022-11-03T03:28:55.710Z,50.902458
2022-11-03T03:29:55.734Z,50.902443
2022-11-03T03:30:55.707Z,50.902470
2022-11-03T03:31:55.713Z,50.902454
2022-11-03T03:32:55.675Z,50.902447
2022-11-03T03:34:04.463Z,50.902462
2022-11-03T03:34:57.657Z,50.902462
2022-11-03T03:35:55.655Z,50.902428
2022-11-03T03:36:55.648Z,50.902447
2022-11-03T03:37:55.668Z,50.902431
2022-11-03T03:38:55.635Z,50.902447
2022-11-03T03:39:56.468Z,50.902435
2022-11-03T03:40:55.685Z,50.902443
2022-11-03T03:41:55.608Z,50.902405
2022-11-03T03:42:55.646Z,50.902435
2022-11-03T03:43:55.602Z,50.902439
2022-11-03T03:44:55.584Z,50.902454
2022-11-03T03:45:55.582Z,50.902431
2022-11-03T03:46:55.569Z,50.902390
2022-11-03T03:47:57.807Z,50.902393
2022-11-03T03:48:57.561Z,50.902409
2022-11-03T03:49:55.548Z,50.902435
2022-11-03T03:50:55.558Z,50.902431
2022-11-03T03:51:55.564Z,50.902428
2022-11-03T03:52:55.536Z,50.902401
2022-11-03T03:53:55.520Z,50.902374
2022-11-03T03:54:55.516Z,50.902374
2022-11-03T03:55:55.532Z,50.902370
2022-11-03T03:56:55.490Z,50.902393
2022-11-03T03:57:59.426Z,50.902401
2022-11-03T03:58:55.483Z,50.902420
2022-11-03T03:59:55.479Z,50.902435
2022-11-03T04:00:55.551Z,50.902431
2022-11-03T04:01:55.580Z,50.902416
2022-11-03T04:02:55.474Z,50.902435
2022-11-03T04:03:55.449Z,50.902416
2022-11-03T04:04:55.435Z,50.902401
2022-11-03T04:05:55.424Z,50.902412
2022-11-03T04:06:55.449Z,50.902447
2022-11-03T04:07:55.440Z,50.902390
2022-11-03T04:08:55.408Z,50.902386
2022-11-03T04:09:55.512Z,50.902409
2022-11-03T04:10:55.396Z,50.902416
2022-11-03T04:11:55.372Z,50.902412
2022-11-03T04:12:56.403Z,50.902393
2022-11-03T04:13:55.367Z,50.902397
2022-11-03T04:14:55.377Z,50.902431
2022-11-03T04:15:55.355Z,50.902416
2022-11-03T04:16:55.343Z,50.902416
2022-11-03T04:17:55.367Z,50.902431
2022-11-03T04:18:55.320Z,50.902424
2022-11-03T04:19:55.326Z,50.902439
2022-11-03T04:20:55.317Z,50.902397
2022-11-03T04:21:55.322Z,50.902393
2022-11-03T04:22:55.325Z,50.902393
2022-11-03T04:23:55.294Z,50.902397
2022-11-03T04:24:55.294Z,50.902416
2022-11-03T04:25:55.286Z,50.902409
2022-11-03T04:26:55.269Z,50.902393
2022-11-03T04:27:55.293Z,50.902397
2022-11-03T04:28:55.287Z,50.902405
2022-11-03T04:29:55.250Z,50.902397
2022-11-03T04:30:57.746Z,50.902397
2022-11-03T04:31:55.229Z,50.902397
2022-11-03T04:32:55.246Z,50.902428
2022-11-03T04:33:55.213Z,50.902412
2022-11-03T04:34:55.201Z,50.902397
2022-11-03T04:35:55.198Z,50.902401
2022-11-03T04:36:55.189Z,50.902409
2022-11-03T04:37:55.213Z,50.902401
2022-11-03T04:38:55.172Z,50.902386
2022-11-03T04:39:55.169Z,50.902382
2022-11-03T04:40:55.255Z,50.902390
2022-11-03T04:41:55.148Z,50.902390
2022-11-03T04:42:55.171Z,50.902393
2022-11-03T04:43:55.137Z,50.902401
2022-11-03T04:44:55.125Z,50.902401
2022-11-03T04:45:55.126Z,50.902393
2022-11-03T04:46:55.114Z,50.902397
2022-11-03T04:47:56.132Z,50.902405
2022-11-03T04:48:55.100Z,50.902412
2022-11-03T04:49:55.101Z,50.902412
2022-11-03T04:50:55.082Z,50.902409
2022-11-03T04:51:55.077Z,50.902435
2022-11-03T04:52:55.106Z,50.902431
2022-11-03T04:53:55.064Z,50.902431
2022-11-03T04:54:55.364Z,50.902416
2022-11-03T04:55:55.046Z,50.902416
2022-11-03T04:56:55.041Z,50.902405
2022-11-03T04:57:55.052Z,50.902409
2022-11-03T04:58:55.022Z,50.902428
2022-11-03T04:59:55.018Z,50.902397
2022-11-03T05:00:55.098Z,50.902409
2022-11-03T05:01:55.205Z,50.902386
2022-11-03T05:02:56.460Z,50.902386
2022-11-03T05:03:55.000Z,50.902397
2022-11-03T05:04:54.994Z,50.902390
2022-11-03T05:05:54.968Z,50.902405
2022-11-03T05:06:54.990Z,50.902386
2022-11-03T05:07:55.049Z,50.902370
2022-11-03T05:08:54.970Z,50.902382
2022-11-03T05:09:54.955Z,50.902367
2022-11-03T05:10:54.945Z,50.902424
2022-11-03T05:11:54.950Z,50.902431
2022-11-03T05:12:54.961Z,50.902397
2022-11-03T05:13:54.910Z,50.902409
2022-11-03T05:14:58.695Z,50.902397
2022-11-03T05:15:55.892Z,50.902397
2022-11-03T05:16:54.886Z,50.902401
2022-11-03T05:17:54.930Z,50.902390
2022-11-03T05:18:54.871Z,50.902390
2022-11-03T05:19:54.861Z,50.902447
2022-11-03T05:20:54.852Z,50.902401
2022-11-03T05:21:54.848Z,50.902386
2022-11-03T05:22:54.910Z,50.902390
2022-11-03T05:23:54.863Z,50.902397
2022-11-03T05:24:54.831Z,50.902378
2022-11-03T05:25:54.813Z,50.902370
2022-11-03T05:26:54.841Z,50.902428
2022-11-03T05:27:54.801Z,50.902420
2022-11-03T05:28:54.803Z,50.902351
2022-11-03T05:29:57.819Z,50.902382
2022-11-03T05:30:55.774Z,50.902435
2022-11-03T05:31:54.811Z,50.902409
2022-11-03T05:32:54.760Z,50.902420
2022-11-03T05:33:54.762Z,50.902409
2022-11-03T05:34:54.765Z,50.902401
2022-11-03T05:35:54.744Z,50.902363
2022-11-03T05:36:54.772Z,50.902355
2022-11-03T05:37:54.720Z,50.902367
2022-11-03T05:38:54.723Z,50.902355
2022-11-03T05:39:54.712Z,50.902355
2022-11-03T05:40:54.711Z,50.902424
2022-11-03T05:41:54.704Z,50.902416
2022-11-03T05:42:54.714Z,50.902386
2022-11-03T05:43:54.669Z,50.902378
2022-11-03T05:44:55.678Z,50.902355
2022-11-03T05:45:54.727Z,50.902431
2022-11-03T05:46:54.690Z,50.902386
2022-11-03T05:47:54.645Z,50.902439
2022-11-03T05:48:54.637Z,50.902428
2022-11-03T05:49:54.638Z,50.902409
2022-11-03T05:50:54.625Z,50.902397
2022-11-03T05:51:54.666Z,50.902397
2022-11-03T05:52:54.615Z,50.902458
2022-11-03T05:53:54.609Z,50.902470
2022-11-03T05:54:54.596Z,50.902397
2022-11-03T05:55:54.593Z,50.902431
2022-11-03T05:56:54.618Z,50.902351
2022-11-03T05:57:54.570Z,50.902424
2022-11-03T05:58:54.564Z,50.902424
2022-11-03T05:59:55.564Z,50.902351
2022-11-03T06:00:54.563Z,50.902390
2022-11-03T06:01:54.705Z,50.902378
2022-11-03T06:02:54.685Z,50.902405
2022-11-03T06:03:54.529Z,50.902424
2022-11-03T06:04:54.526Z,50.902397
2022-11-03T06:05:54.518Z,50.902409
2022-11-03T06:06:54.551Z,50.902416
2022-11-03T06:07:54.504Z,50.902336
2022-11-03T06:08:54.494Z,50.902287
2022-11-03T06:09:54.487Z,50.902363
2022-11-03T06:10:54.483Z,50.902390
2022-11-03T06:11:54.505Z,50.902367
2022-11-03T06:12:54.466Z,50.902363
2022-11-03T06:13:54.459Z,50.902393
2022-11-03T06:14:54.447Z,50.902405
2022-11-03T06:15:54.445Z,50.902443
2022-11-03T06:16:54.462Z,50.902386
2022-11-03T06:17:54.460Z,50.902386
2022-11-03T06:18:54.546Z,50.902393
2022-11-03T06:19:54.424Z,50.902409
2022-11-03T06:20:54.415Z,50.902382
2022-11-03T06:21:54.409Z,50.902344
2022-11-03T06:22:55.423Z,50.902378
2022-11-03T06:23:54.403Z,50.902390
2022-11-03T06:24:54.375Z,50.902447
2022-11-03T06:25:54.368Z,50.902451
2022-11-03T06:26:54.360Z,50.902351
2022-11-03T06:27:54.388Z,50.902374
2022-11-03T06:28:54.345Z,50.902390
2022-11-03T06:29:54.341Z,50.902393
2022-11-03T06:30:54.332Z,50.902439
2022-11-03T06:31:54.324Z,50.902428
2022-11-03T06:32:54.357Z,50.902439
2022-11-03T06:33:54.326Z,50.902462
2022-11-03T06:34:54.306Z,50.902412
2022-11-03T06:35:54.434Z,50.902412
2022-11-03T06:36:54.286Z,50.902458
2022-11-03T06:37:54.336Z,50.902431
2022-11-03T06:38:54.285Z,50.902416
2022-11-03T06:39:54.293Z,50.902527
2022-11-03T06:40:54.264Z,50.902515
2022-11-03T06:41:54.241Z,50.902470
2022-11-03T06:42:54.271Z,50.902447
2022-11-03T06:43:54.240Z,50.902405
2022-11-03T06:44:54.323Z,50.902393
2022-11-03T06:45:54.227Z,50.902355
2022-11-03T06:46:54.211Z,50.902428
2022-11-03T06:47:54.223Z,50.902409
2022-11-03T06:48:54.195Z,50.902424
2022-11-03T06:49:54.187Z,50.902401
2022-11-03T06:50:54.189Z,50.902443
2022-11-03T06:51:54.174Z,50.902454
2022-11-03T06:52:54.201Z,50.902447
2022-11-03T06:53:54.160Z,50.902451
2022-11-03T06:54:54.162Z,50.902428
2022-11-03T06:55:54.137Z,50.902412
2022-11-03T06:56:54.146Z,50.902424
2022-11-03T06:57:54.165Z,50.902451
2022-11-03T06:58:54.166Z,50.902443
2022-11-03T07:00:06.810Z,50.902428
2022-11-03T07:01:02.641Z,50.902431
2022-11-03T07:01:56.268Z,50.902401
2022-11-03T07:02:54.127Z,50.902428
2022-11-03T07:03:54.102Z,50.902435
2022-11-03T07:04:54.094Z,50.902462
2022-11-03T07:05:54.122Z,50.902439
2022-11-03T07:06:54.970Z,50.902439
2022-11-03T07:07:54.077Z,50.902439
2022-11-03T07:08:54.042Z,50.902428
2022-11-03T07:09:54.043Z,50.902470
2022-11-03T07:10:54.034Z,50.902431
2022-11-03T07:11:54.013Z,50.902443
2022-11-03T07:12:55.036Z,50.902435
2022-11-03T07:13:54.004Z,50.902447
2022-11-03T07:14:54.062Z,50.902443
2022-11-03T07:15:53.990Z,50.902439
2022-11-03T07:16:53.985Z,50.902447
2022-11-03T07:17:54.002Z,50.902447
2022-11-03T07:18:53.974Z,50.902458
2022-11-03T07:19:53.966Z,50.902508
2022-11-03T07:20:53.952Z,50.902462
2022-11-03T07:21:53.961Z,50.902458
2022-11-03T07:22:53.966Z,50.902473
2022-11-03T07:23:53.933Z,50.902443
2022-11-03T07:24:53.928Z,50.902447
2022-11-03T07:25:53.927Z,50.902496
2022-11-03T07:26:53.908Z,50.902462
2022-11-03T07:27:53.929Z,50.902443
2022-11-03T07:28:53.902Z,50.902435
2022-11-03T07:29:53.896Z,50.902439
2022-11-03T07:30:53.915Z,50.902447
2022-11-03T07:31:53.874Z,50.902393
2022-11-03T07:32:53.889Z,50.902435
2022-11-03T07:33:53.863Z,50.902435
2022-11-03T07:34:53.850Z,50.902458
2022-11-03T07:36:14.408Z,50.902447
2022-11-03T07:36:56.261Z,50.902431
2022-11-03T07:37:54.861Z,50.902447
2022-11-03T07:38:53.833Z,50.902428
2022-11-03T07:39:53.851Z,50.902435
2022-11-03T07:40:53.812Z,50.902428
2022-11-03T07:41:53.797Z,50.902473
2022-11-03T07:42:53.884Z,50.902466
2022-11-03T07:43:53.786Z,50.902443
2022-11-03T07:44:53.779Z,50.902439
2022-11-03T07:45:53.771Z,50.902462
2022-11-03T07:46:53.778Z,50.902447
2022-11-03T07:47:53.785Z,50.902439
2022-11-03T07:48:53.747Z,50.902443
2022-11-03T07:49:53.743Z,50.902447
2022-11-03T07:50:53.745Z,50.902447
2022-11-03T07:51:53.726Z,50.902447
2022-11-03T07:52:53.748Z,50.902424
2022-11-03T07:53:53.708Z,50.902477
2022-11-03T07:54:53.706Z,50.902431
2022-11-03T07:55:53.775Z,50.902431
2022-11-03T07:56:53.693Z,50.902462
2022-11-03T07:57:53.692Z,50.902424
2022-11-03T07:58:54.682Z,50.902416
2022-11-03T07:59:53.664Z,50.902412
2022-11-03T08:00:53.670Z,50.902420
2022-11-03T08:01:53.783Z,50.902424
2022-11-03T08:02:53.736Z,50.902447
2022-11-03T08:03:53.632Z,50.902447
2022-11-03T08:04:53.633Z,50.902428
2022-11-03T08:05:53.631Z,50.902405
2022-11-03T08:06:53.607Z,50.902401
2022-11-03T08:07:53.631Z,50.902412
2022-11-03T08:08:53.595Z,50.902420
2022-11-03T08:09:53.585Z,50.902412
2022-11-03T08:10:53.579Z,50.902435
2022-11-03T08:11:53.584Z,50.902378
2022-11-03T08:12:53.594Z,50.902424
2022-11-03T08:13:53.556Z,50.902458
2022-11-03T08:14:53.551Z,50.902409
2022-11-03T08:15:53.552Z,50.902397
2022-11-03T08:16:53.528Z,50.902439
2022-11-03T08:17:56.113Z,50.902420
2022-11-03T08:18:54.516Z,50.902401
2022-11-03T08:19:53.505Z,50.902443
2022-11-03T08:20:53.498Z,50.902390
2022-11-03T08:21:53.498Z,50.902416
2022-11-03T08:23:19.689Z,50.902416
2022-11-03T08:23:55.472Z,50.902420
2022-11-03T08:24:53.469Z,50.902431
2022-11-03T08:25:53.457Z,50.902401
2022-11-03T08:26:53.464Z,50.902431
2022-11-03T08:27:53.467Z,50.902431
2022-11-03T08:28:53.448Z,50.902420
2022-11-03T08:29:53.432Z,50.902439
2022-11-03T08:30:53.426Z,50.902397
2022-11-03T08:31:53.427Z,50.902401
2022-11-03T08:32:53.437Z,50.902348
2022-11-03T08:33:53.402Z,50.902420
2022-11-03T08:34:53.393Z,50.902451
2022-11-03T08:35:53.387Z,50.902439
2022-11-03T08:36:53.373Z,50.902424
2022-11-03T08:37:53.397Z,50.902409
2022-11-03T08:38:53.387Z,50.902443
2022-11-03T08:39:53.355Z,50.902405
2022-11-03T08:40:55.306Z,50.902428
2022-11-03T08:41:53.342Z,50.902431
2022-11-03T08:42:53.339Z,50.902401
2022-11-03T08:43:53.356Z,50.902409
2022-11-03T08:44:53.357Z,50.902409
2022-11-03T08:45:53.304Z,50.902382
2022-11-03T08:46:53.307Z,50.902363
2022-11-03T08:47:53.290Z,50.902405
2022-11-03T08:48:53.303Z,50.902405
2022-11-03T08:49:54.273Z,50.902382
2022-11-03T08:50:53.267Z,50.902374
2022-11-03T08:51:54.278Z,50.902374
2022-11-03T08:52:53.255Z,50.902367
2022-11-03T08:53:53.276Z,50.902416
2022-11-03T08:54:53.275Z,50.902489
2022-11-03T08:55:53.226Z,50.902367
2022-11-03T08:56:53.229Z,50.902378
2022-11-03T08:57:53.215Z,50.902443
2022-11-03T08:58:53.238Z,50.902431
2022-11-03T08:59:53.199Z,50.902386
2022-11-03T09:00:53.197Z,50.902336
2022-11-03T09:01:53.346Z,50.902382
2022-11-03T09:02:53.177Z,50.902386
2022-11-03T09:03:53.232Z,50.902367
2022-11-03T09:04:53.170Z,50.902378
2022-11-03T09:05:53.157Z,50.902367
2022-11-03T09:06:53.143Z,50.902401
2022-11-03T09:10:30.000Z,50.902420
2022-11-03T09:10:55.130Z,50.902378
2022-11-03T09:11:53.112Z,50.902409
2022-11-03T09:12:53.101Z,50.902378
2022-11-03T09:13:53.136Z,50.902401
2022-11-03T09:14:53.095Z,50.902416
2022-11-03T09:15:53.081Z,50.902431
2022-11-03T09:16:53.111Z,50.902454
2022-11-03T09:17:53.075Z,50.902443
2022-11-03T09:18:53.081Z,50.902397
2022-11-03T09:19:53.047Z,50.902401
2022-11-03T09:20:53.045Z,50.902428
2022-11-03T09:21:53.032Z,50.902447
2022-11-03T09:22:53.035Z,50.902451
2022-11-03T09:23:53.053Z,50.902454
2022-11-03T09:24:53.012Z,50.902401
2022-11-03T09:25:53.025Z,50.902412
2022-11-03T09:26:53.005Z,50.902409
2022-11-03T09:27:52.990Z,50.902424
2022-11-03T09:28:53.007Z,50.902420
2022-11-03T09:30:12.339Z,50.902405
2022-11-03T09:30:54.973Z,50.902416
2022-11-03T09:31:52.959Z,50.902439
2022-11-03T09:32:52.958Z,50.902412
2022-11-03T09:33:52.973Z,50.902412
2022-11-03T09:34:52.972Z,50.902428
2022-11-03T09:35:52.934Z,50.902431
2022-11-03T09:36:53.427Z,50.902416
2022-11-03T09:37:53.920Z,50.902431
2022-11-03T09:38:52.930Z,50.902451
2022-11-03T09:39:52.901Z,50.902420
2022-11-03T09:40:52.900Z,50.902397
2022-11-03T09:41:58.733Z,50.902412
2022-11-03T09:42:55.055Z,50.902405
2022-11-03T09:43:52.894Z,50.902443
2022-11-03T09:44:52.864Z,50.902439
2022-11-03T09:45:52.852Z,50.902416
2022-11-03T09:46:58.086Z,50.902443
2022-11-03T09:47:54.835Z,50.902451
2022-11-03T09:48:52.861Z,50.902493
2022-11-03T09:49:52.829Z,50.902458
2022-11-03T09:50:52.814Z,50.902397
2022-11-03T09:51:52.813Z,50.902431
2022-11-03T09:52:52.802Z,50.902420
2022-11-03T09:53:52.818Z,50.902409
2022-11-03T09:54:52.788Z,50.902431
2022-11-03T09:55:52.800Z,50.902431
2022-11-03T09:56:52.774Z,50.902409
2022-11-03T09:57:52.772Z,50.902424
2022-11-03T09:58:54.537Z,50.902412
2022-11-03T09:59:53.755Z,50.902420
2022-11-03T10:00:52.855Z,50.902447
2022-11-03T10:01:52.833Z,50.902428
2022-11-03T10:02:52.722Z,50.902412
2022-11-03T10:03:52.746Z,50.902470
2022-11-03T10:04:52.769Z,50.902481
2022-11-03T10:05:52.705Z,50.902424
2022-11-03T10:06:52.705Z,50.902428
2022-11-03T10:07:52.697Z,50.902405
2022-11-03T10:08:52.708Z,50.902424
2022-11-03T10:09:52.673Z,50.902451
2022-11-03T10:10:52.679Z,50.902397
2022-11-03T10:11:52.654Z,50.902458
2022-11-03T10:12:52.645Z,50.902493
2022-11-03T10:13:52.681Z,50.902477
2022-11-03T10:14:52.647Z,50.902447
2022-11-03T10:15:52.626Z,50.902416
2022-11-03T10:16:53.568Z,50.902435
2022-11-03T10:17:52.628Z,50.902431
2022-11-03T10:18:52.633Z,50.902428
2022-11-03T10:19:52.599Z,50.902397
2022-11-03T10:20:52.590Z,50.902401
2022-11-03T10:21:52.590Z,50.902439
2022-11-03T10:22:52.583Z,50.902416
2022-11-03T10:23:52.592Z,50.902393
2022-11-03T10:24:52.562Z,50.902378
2022-11-03T10:25:52.549Z,50.902424
2022-11-03T10:26:52.545Z,50.902431
2022-11-03T10:27:53.540Z,50.902424
2022-11-03T10:28:52.563Z,50.902439
2022-11-03T10:29:56.434Z,50.902477
2022-11-03T10:31:11.937Z,50.902397
2022-11-03T10:31:54.510Z,50.902416
2022-11-03T10:32:52.515Z,50.902382
2022-11-03T10:33:52.533Z,50.902374
2022-11-03T10:34:52.488Z,50.902420
2022-11-03T10:35:52.483Z,50.902428
2022-11-03T10:36:52.475Z,50.902401
2022-11-03T10:37:52.469Z,50.902493
2022-11-03T10:38:52.491Z,50.902466
2022-11-03T10:39:52.450Z,50.902397
2022-11-03T10:40:52.447Z,50.902412
2022-11-03T10:41:52.421Z,50.902397
2022-11-03T10:42:53.427Z,50.902412
2022-11-03T10:43:52.448Z,50.902428
2022-11-03T10:44:52.406Z,50.902405
2022-11-03T10:45:52.398Z,50.902428
2022-11-03T10:46:52.454Z,50.902458
2022-11-03T10:47:55.610Z,50.902420
2022-11-03T10:48:53.573Z,50.902409
2022-11-03T10:49:52.374Z,50.902344
2022-11-03T10:50:52.367Z,50.902378
2022-11-03T10:51:52.534Z,50.902382
2022-11-03T10:52:52.359Z,50.902428
2022-11-03T10:53:52.372Z,50.902420
2022-11-03T10:54:52.326Z,50.902431
2022-11-03T10:55:52.323Z,50.902424
2022-11-03T10:56:52.347Z,50.902420
2022-11-03T10:57:53.197Z,50.902401
2022-11-03T10:58:52.360Z,50.902420
2022-11-03T10:59:52.290Z,50.902409
2022-11-03T11:00:52.366Z,50.902393
2022-11-03T11:01:52.345Z,50.902443
2022-11-03T11:02:52.264Z,50.902451
2022-11-03T11:03:52.348Z,50.902500
2022-11-03T11:04:52.261Z,50.902466
2022-11-03T11:05:52.248Z,50.902405
2022-11-03T11:06:52.243Z,50.902409
2022-11-03T11:07:52.287Z,50.902378
2022-11-03T11:08:56.001Z,50.902340
2022-11-03T11:09:54.231Z,50.902386
2022-11-03T11:10:52.213Z,50.902359
2022-11-03T11:11:52.202Z,50.902393
2022-11-03T11:12:52.188Z,50.902405
2022-11-03T11:13:52.221Z,50.902325
2022-11-03T11:14:52.178Z,50.902348
2022-11-03T11:15:52.192Z,50.902340
2022-11-03T11:16:52.159Z,50.902363
2022-11-03T11:17:52.156Z,50.902367
2022-11-03T11:18:52.145Z,50.902439
2022-11-03T11:19:52.171Z,50.902405
2022-11-03T11:20:52.130Z,50.902420
2022-11-03T11:21:52.125Z,50.902351
2022-11-03T11:22:52.121Z,50.902359
2022-11-03T11:23:52.107Z,50.902336
2022-11-03T11:24:52.124Z,50.902397
2022-11-03T11:25:52.089Z,50.902321
2022-11-03T11:26:52.147Z,50.902287
2022-11-03T11:27:55.558Z,50.902348